Time;durP1;ratioP1;P1;durP2;ratioP2;P2;SDS_P1;SDS_P2;PMS_P1;PMS_P2;Temp;Humidity;BMP_temperature;BMP_pressure;BME280_temperature;BME280_humidity;BME280_pressure;Samples;Min_cycle;Max_cycle;Signal;HPM_P1;HPM_P2
2021/07/27 00:00:19;;;;;;;39.83;25.42;;;;;;;19.55;68.29;101026.34;10472852;28;20036;-77
2021/07/27 00:05:20;;;;;;;32.10;23.05;;;;;;;20.13;68.25;101141.19;10492551;28;20028;-77
2021/07/27 00:10:20;;;;;;;34.05;23.25;;;;;;;20.04;68.01;101137.22;10473491;28;20127;-77
2021/07/27 00:15:22;;;;;;;30.73;22.50;;;;;;;19.99;68.14;101137.16;10473300;28;20408;-77
2021/07/27 00:20:22;;;;;;;40.58;25.77;;;;;;;19.89;68.26;101117.78;10475122;28;20061;-76
2021/07/27 00:25:23;;;;;;;34.10;24.58;;;;;;;18.92;68.21;100968.03;10498049;28;20544;-77
2021/07/27 00:30:23;;;;;;;40.50;25.60;;;;;;;19.63;68.10;101092.66;10506923;28;20131;-76
2021/07/27 00:35:25;;;;;;;46.30;26.40;;;;;;;18.95;68.43;100992.25;10520623;28;20039;-77
2021/07/27 00:40:25;;;;;;;37.17;26.05;;;;;;;19.66;68.18;101113.34;10506970;28;20024;-77
2021/07/27 00:45:26;;;;;;;40.28;28.20;;;;;;;19.35;68.64;101076.31;10509030;28;20029;-77
2021/07/27 00:50:26;;;;;;;42.15;29.95;;;;;;;19.57;68.49;101109.31;10508026;28;20142;-77
2021/07/27 00:55:27;;;;;;;46.22;27.80;;;;;;;19.55;68.56;101106.81;10506629;28;20056;-77
2021/07/27 01:00:28;;;;;;;62.08;37.65;;;;;;;19.46;69.02;101108.31;10488726;28;20044;-77
2021/07/27 01:05:29;;;;;;;66.03;40.47;;;;;;;19.51;68.93;101120.22;10506035;28;20459;-76
2021/07/27 01:10:29;;;;;;;61.53;37.78;;;;;;;19.59;68.55;101102.50;10506723;28;20509;-77
2021/07/27 01:15:30;;;;;;;65.57;37.63;;;;;;;18.98;68.61;100998.06;10490275;28;20128;-77
2021/07/27 01:47:05;;;;;;;73.78;41.22;;;;;;;19.41;68.88;101059.66;10494800;28;20470;-77
2021/07/27 01:52:10;;;;;;;87.18;47.13;;;;;;;19.33;68.95;101057.34;10476675;28;20124;-77
2021/07/27 01:57:11;;;;;;;77.00;47.00;;;;;;;19.26;68.63;101046.53;10496714;28;20501;-77
2021/07/27 02:02:12;;;;;;;77.78;45.83;;;;;;;19.47;68.80;101068.81;10478020;28;20135;-77
2021/07/27 02:07:12;;;;;;;70.50;43.63;;;;;;;19.55;69.05;101079.34;10480203;28;20115;-77
2021/07/27 02:12:18;;;;;;;75.35;44.22;;;;;;;18.23;69.05;100862.19;10461809;28;20036;-77
2021/07/27 02:17:19;;;;;;;85.88;52.08;;;;;;;19.21;69.75;101040.16;10498203;28;20036;-77
2021/07/27 02:22:19;;;;;;;76.78;44.33;;;;;;;19.40;69.48;101065.38;10478326;28;20441;-77
2021/07/27 02:27:20;;;;;;;87.00;48.78;;;;;;;19.35;69.53;101068.91;10495204;28;20372;-77
2021/07/27 02:32:20;;;;;;;69.18;44.78;;;;;;;19.41;69.38;101064.31;10494686;28;20361;-77
2021/07/27 02:37:21;;;;;;;76.15;45.95;;;;;;;18.91;70.22;100996.59;10476178;28;20040;-77
2021/07/27 02:42:21;;;;;;;67.28;41.13;;;;;;;19.09;70.73;101053.13;10460702;28;20131;-77
2021/07/27 02:47:24;;;;;;;63.00;39.45;;;;;;;19.19;71.04;101070.59;10495356;28;20033;-77
2021/07/27 02:52:24;;;;;;;51.13;35.17;;;;;;;19.16;70.57;101073.84;10482637;28;20028;-76
2021/07/27 02:57:24;;;;;;;56.55;35.92;;;;;;;19.15;70.46;101065.84;10485596;28;20055;-77
2021/07/27 03:02:39;;;;;;;43.65;32.80;;;;;;;18.42;69.87;100933.22;10480113;28;20051;-77
2021/07/27 03:12:46;;;;;;;50.83;34.13;;;;;;;18.44;69.29;100926.44;10496246;28;20066;-77
2021/07/27 03:17:46;;;;;;;49.85;35.75;;;;;;;18.28;70.34;100941.78;10476842;28;20032;-77
2021/07/27 03:22:47;;;;;;;64.60;36.42;;;;;;;18.58;69.90;100992.75;10497767;28;20060;-77
2021/07/27 03:27:48;;;;;;;54.38;33.38;;;;;;;18.28;71.11;100966.47;10464681;28;20056;-77
2021/07/27 03:32:49;;;;;;;54.65;34.05;;;;;;;18.84;70.69;101039.81;10482150;28;20087;-77
2021/07/27 03:37:50;;;;;;;46.65;31.83;;;;;;;17.95;70.56;100890.47;10499903;28;20049;-77
2021/07/27 03:42:50;;;;;;;49.70;32.28;;;;;;;18.72;70.65;101001.47;10500098;28;20032;-77
2021/07/27 03:47:50;;;;;;;58.10;30.95;;;;;;;19.02;70.56;101048.66;10498970;28;20025;-77
2021/07/27 03:52:51;;;;;;;52.17;33.15;;;;;;;19.16;70.41;101062.84;10482218;28;20082;-77
2021/07/27 03:57:52;;;;;;;42.50;30.60;;;;;;;19.26;70.15;101057.50;10481403;28;20476;-77
2021/07/27 04:02:53;;;;;;;49.67;32.42;;;;;;;19.29;70.19;101051.50;10464013;28;20490;-76
2021/07/27 04:07:53;;;;;;;40.35;28.42;;;;;;;19.18;69.59;101021.44;10481251;28;20388;-77
2021/07/27 04:12:54;;;;;;;46.30;29.27;;;;;;;19.52;69.52;101052.38;10499399;28;20041;-77
2021/07/27 04:17:54;;;;;;;59.60;29.60;;;;;;;19.45;69.38;101049.81;10498908;28;20119;-78
2021/07/27 04:22:55;;;;;;;38.08;26.30;;;;;;;19.10;70.33;101030.09;10498166;28;20518;-77
2021/07/27 04:27:55;;;;;;;39.85;24.65;;;;;;;19.07;70.01;101006.72;10497837;28;20135;-78
2021/07/27 04:32:55;;;;;;;33.97;24.35;;;;;;;19.34;70.11;101039.78;10479988;28;20628;-76
2021/07/27 04:37:57;;;;;;;32.97;23.02;;;;;;;19.45;68.98;101057.25;10424257;28;20102;-79
2021/07/27 04:42:58;;;;;;;42.20;24.73;;;;;;;19.23;69.65;101022.31;10480193;28;20040;-78
2021/07/27 04:47:59;;;;;;;37.95;22.77;;;;;;;19.60;69.12;101065.69;10497909;28;20044;-78
2021/07/27 04:53:00;;;;;;;30.77;22.10;;;;;;;19.79;68.72;101048.94;10480462;28;20403;-75
2021/07/27 04:58:04;;;;;;;29.60;20.52;;;;;;;19.22;68.55;100949.28;10479782;28;20040;-77
2021/07/27 05:03:04;;;;;;;35.63;21.48;;;;;;;19.84;68.33;101035.25;10480385;28;20029;-78
2021/07/27 05:08:05;;;;;;;30.15;21.30;;;;;;;19.90;69.12;101050.72;10501197;28;20028;-78
2021/07/27 05:13:06;;;;;;;29.75;20.48;;;;;;;19.64;67.98;100973.47;10505561;28;20060;-78
2021/07/27 05:18:06;;;;;;;25.85;20.08;;;;;;;20.29;68.39;101037.69;10483849;28;20395;-78
2021/07/27 05:23:07;;;;;;;23.83;19.75;;;;;;;20.20;67.87;101036.53;10498060;28;20056;-77
2021/07/27 05:28:08;;;;;;;24.77;18.30;;;;;;;20.20;67.20;101059.34;10497691;28;20506;-76
2021/07/27 05:33:09;;;;;;;27.63;18.08;;;;;;;20.05;67.70;101023.41;10498126;28;20092;-77
2021/07/27 05:38:09;;;;;;;26.45;19.95;;;;;;;20.08;68.10;101033.06;10499258;28;20048;-77
2021/07/27 05:43:10;;;;;;;27.90;19.08;;;;;;;20.14;66.83;101037.53;10498643;28;20410;-77
2021/07/27 05:48:10;;;;;;;33.95;20.77;;;;;;;20.15;68.13;101037.28;10498645;28;20507;-77
2021/07/27 05:53:10;;;;;;;35.08;20.58;;;;;;;19.57;67.64;100961.00;10500071;28;20115;-76
2021/07/27 05:58:11;;;;;;;32.50;18.35;;;;;;;20.19;66.55;101021.91;10502716;28;20044;-77
2021/07/27 06:03:12;;;;;;;20.75;17.10;;;;;;;20.33;67.55;101035.28;10486797;28;20102;-77
2021/07/27 06:08:12;;;;;;;24.08;19.42;;;;;;;20.38;67.37;101011.38;10485327;28;20452;-77
2021/07/27 06:13:13;;;;;;;21.27;16.45;;;;;;;20.81;67.28;101028.06;10502428;28;20032;-77
2021/07/27 06:18:13;;;;;;;22.05;16.83;;;;;;;21.11;67.46;101031.00;10502364;28;20039;-77
2021/07/27 06:23:13;;;;;;;23.48;16.35;;;;;;;20.90;65.83;101018.22;10502802;28;20040;-77
2021/07/27 06:28:14;;;;;;;18.95;15.02;;;;;;;21.08;65.29;101030.72;10500950;28;20060;-77
2021/07/27 06:33:14;;;;;;;19.90;14.75;;;;;;;21.93;65.31;101042.53;10503553;28;20072;-77
2021/07/27 06:38:15;;;;;;;17.38;13.95;;;;;;;22.93;62.74;101031.16;10502416;28;20118;-77
2021/07/27 06:43:15;;;;;;;17.33;13.98;;;;;;;23.58;62.92;101036.84;10501894;28;20045;-77
2021/07/27 06:48:15;;;;;;;19.10;12.57;;;;;;;23.38;64.13;101043.22;10501609;28;20123;-77
2021/07/27 06:53:16;;;;;;;12.80;11.52;;;;;;;23.07;61.96;101022.28;10484806;28;20083;-77
2021/07/27 06:58:17;;;;;;;31.63;14.68;;;;;;;22.73;62.22;100992.47;10500990;28;20029;-77
2021/07/27 07:03:17;;;;;;;18.65;12.32;;;;;;;23.17;62.62;101044.41;10482996;28;20067;-77
2021/07/27 07:08:17;;;;;;;18.70;13.77;;;;;;;23.56;61.49;101046.53;10501395;28;20459;-77
2021/07/27 07:13:18;;;;;;;21.50;13.55;;;;;;;23.24;60.93;100931.66;10482693;28;20070;-77
2021/07/27 07:18:18;;;;;;;20.95;13.00;;;;;;;23.30;61.67;101043.00;10500469;28;20036;-77
2021/07/27 07:23:20;;;;;;;25.02;13.55;;;;;;;22.49;61.89;100935.09;10481836;28;20086;-77
2021/07/27 07:28:20;;;;;;;21.05;12.55;;;;;;;22.52;61.08;100945.53;10483972;28;20411;-77
2021/07/27 07:33:21;;;;;;;17.25;13.82;;;;;;;22.97;63.27;101040.56;10489144;28;20032;-77
2021/07/27 07:38:21;;;;;;;23.35;15.13;;;;;;;23.10;62.18;101018.97;10481216;28;20119;-77
2021/07/27 07:43:22;;;;;;;30.05;17.30;;;;;;;22.92;62.78;101047.97;10499698;28;20025;-77
2021/07/27 07:48:22;;;;;;;18.90;16.30;;;;;;;23.03;63.38;101046.06;10499079;28;20032;-77
2021/07/27 07:53:22;;;;;;;21.10;15.25;;;;;;;22.95;62.69;100976.47;10499093;28;20040;-77
2021/07/27 07:58:23;;;;;;;20.80;17.42;;;;;;;23.18;62.96;101043.28;10500057;28;20089;-77
2021/07/27 08:03:23;;;;;;;23.35;16.98;;;;;;;23.39;61.79;101047.69;10498051;28;20093;-77
2021/07/27 08:08:23;;;;;;;32.17;19.02;;;;;;;23.50;60.66;101053.19;10498186;28;20044;-76
2021/07/27 08:13:24;;;;;;;29.83;20.70;;;;;;;23.12;63.71;101049.91;10482085;28;20531;-77
2021/07/27 08:18:24;;;;;;;24.80;18.83;;;;;;;23.27;64.25;101047.16;10498134;28;20037;-77
2021/07/27 08:23:25;;;;;;;24.65;19.10;;;;;;;23.55;61.54;101047.66;10498064;28;20039;-77
2021/07/27 08:28:26;;;;;;;37.58;20.98;;;;;;;23.53;61.76;101020.28;10497476;28;20088;-77
2021/07/27 08:33:27;;;;;;;26.08;20.58;;;;;;;23.41;62.73;101050.16;10497797;28;20040;-77
2021/07/27 08:38:28;;;;;;;32.17;19.45;;;;;;;22.81;62.39;100985.56;10497839;28;20090;-77
2021/07/27 08:43:29;;;;;;;20.52;17.17;;;;;;;23.47;62.29;101054.56;10497793;28;20060;-77
2021/07/27 08:48:29;;;;;;;24.88;19.20;;;;;;;23.03;63.47;101026.72;10496841;28;20033;-77
2021/07/27 08:53:30;;;;;;;26.58;19.00;;;;;;;22.82;63.85;101012.91;10486785;28;20029;-78
2021/07/27 08:58:30;;;;;;;28.60;20.67;;;;;;;23.06;64.73;101068.44;10506923;28;20368;-77
2021/07/27 09:03:31;;;;;;;25.70;20.80;;;;;;;22.87;64.89;101070.06;10488513;28;20064;-77
2021/07/27 09:08:31;;;;;;;29.55;21.38;;;;;;;22.65;64.32;101070.31;10505313;28;20060;-78
2021/07/27 09:13:33;;;;;;;33.45;23.45;;;;;;;22.41;64.95;101090.16;10504872;28;20032;-78
2021/07/27 09:18:34;;;;;;;39.10;19.67;;;;;;;21.64;67.15;101077.13;10487126;28;20029;-78
2021/07/27 09:23:37;;;;;;;15.20;13.35;;;;;;;20.63;69.61;101040.25;10504666;28;20040;-78
2021/07/27 09:28:38;;;;;;;20.15;15.52;;;;;;;20.25;70.74;101027.47;10470861;28;20052;-78
2021/07/27 09:33:38;;;;;;;18.85;11.50;;;;;;;20.49;71.09;101042.59;10504147;28;20072;-78
2021/07/27 09:38:39;;;;;;;15.18;9.70;;;;;;;21.04;70.15;101066.22;10486385;28;20075;-78
2021/07/27 09:43:40;;;;;;;13.57;8.85;;;;;;;22.37;67.19;101102.84;10506656;28;20040;-78
2021/07/27 09:48:43;;;;;;;30.30;7.10;;;;;;;22.82;65.71;101104.03;10508382;28;20486;-78
2021/07/27 09:53:47;;;;;;;15.45;6.55;;;;;;;23.02;66.16;101121.75;10474639;28;20024;-78
2021/07/27 09:58:47;;;;;;;5.45;4.43;;;;;;;23.28;63.33;101103.22;10485741;28;20051;-78
2021/07/27 10:04:03;;;;;;;16.13;5.95;;;;;;;22.77;64.32;101032.22;10484456;28;20502;-78
2021/07/27 10:09:04;;;;;;;6.75;4.85;;;;;;;22.74;63.93;101101.78;10468486;28;20032;-78
2021/07/27 10:14:08;;;;;;;15.32;5.18;;;;;;;22.16;64.61;101071.59;10485522;28;20029;-78
2021/07/27 10:19:21;;;;;;;11.05;4.45;;;;;;;21.39;65.33;101036.47;10503451;28;20029;-77
2021/07/27 10:24:25;;;;;;;5.18;3.47;;;;;;;21.62;64.07;101117.88;10484439;28;20055;-78
2021/07/27 10:29:29;;;;;;;13.82;5.05;;;;;;;21.40;65.19;101088.53;10503067;28;20076;-78
2021/07/27 10:34:33;;;;;;;17.33;3.88;;;;;;;21.50;65.21;101099.63;10484091;28;20044;-78
2021/07/27 10:39:53;;;;;;;10.07;4.68;;;;;;;21.71;65.64;101103.34;10467381;28;20452;-78
2021/07/27 10:44:54;;;;;;;16.60;5.93;;;;;;;21.26;65.96;101010.19;10501298;28;20032;-78
2021/07/27 10:50:07;;;;;;;7.63;4.47;;;;;;;20.91;66.37;100970.31;10501085;28;20051;-78
2021/07/27 10:55:09;;;;;;;10.32;5.25;;;;;;;21.42;65.22;100964.31;10500858;28;20043;-78
2021/07/27 11:00:10;;;;;;;20.08;4.97;;;;;;;22.61;64.66;101058.16;10501652;28;20040;-79
2021/07/27 11:05:10;;;;;;;5.88;3.53;;;;;;;23.51;61.53;101080.53;10482458;28;20032;-78
2021/07/27 11:10:11;;;;;;;11.38;3.78;;;;;;;24.12;62.06;101007.56;10483349;28;20033;-78
2021/07/27 11:15:11;;;;;;;8.80;4.40;;;;;;;25.06;62.33;101079.47;10465942;28;20033;-79
2021/07/27 11:20:13;;;;;;;7.38;3.35;;;;;;;24.74;59.69;101089.16;10483512;28;20448;-80
2021/07/27 11:25:16;;;;;;;4.15;2.78;;;;;;;24.51;60.53;101106.47;10465906;28;20139;-79
2021/07/27 11:30:18;;;;;;;8.45;3.65;;;;;;;24.82;59.51;101096.00;10482090;28;20115;-79
2021/07/27 11:35:24;;;;;;;14.02;3.90;;;;;;;25.40;59.89;101084.16;10482277;28;20040;-79
2021/07/27 11:40:25;;;;;;;7.32;4.43;;;;;;;26.18;58.01;101075.53;10483119;28;20058;-79
2021/07/27 11:45:25;;;;;;;3.50;3.00;;;;;;;26.73;53.35;101083.34;10481181;28;20048;-79
2021/07/27 11:50:30;;;;;;;5.60;3.70;;;;;;;26.67;56.20;101074.31;10480754;28;20499;-80
2021/07/27 11:55:31;;;;;;;12.63;4.80;;;;;;;26.36;55.83;101070.31;10481132;28;20040;-79
2021/07/27 12:00:33;;;;;;;3.78;2.25;;;;;;;24.67;56.23;100918.91;10481202;28;20144;-79
2021/07/27 12:05:33;;;;;;;5.43;4.03;;;;;;;26.67;57.17;101054.00;10481740;28;20537;-79
2021/07/27 12:10:33;;;;;;;3.58;3.28;;;;;;;26.87;55.12;101044.53;10489080;28;20044;-80
2021/07/27 12:15:34;;;;;;;6.45;3.47;;;;;;;27.75;54.06;101053.75;10481117;28;20056;-79
2021/07/27 12:20:34;;;;;;;5.82;3.28;;;;;;;27.58;53.23;101057.16;10464111;28;20119;-80
2021/07/27 12:25:35;;;;;;;7.97;3.53;;;;;;;27.42;56.64;101061.38;10480611;28;20052;-79
2021/07/27 12:30:35;;;;;;;6.55;4.18;;;;;;;26.50;52.68;100968.47;10498255;28;20457;-79
2021/07/27 12:35:36;;;;;;;4.85;3.03;;;;;;;28.00;53.17;101027.38;10479638;28;20032;-78
2021/07/27 12:40:36;;;;;;;8.38;3.75;;;;;;;28.91;55.63;101061.78;10497917;28;20036;-78
2021/07/27 12:45:43;;;;;;;8.07;2.80;;;;;;;27.68;58.21;101021.91;10497494;28;20037;-78
2021/07/27 12:50:43;;;;;;;9.20;4.03;;;;;;;27.48;51.99;101021.19;10465462;28;20048;-78
2021/07/27 12:55:44;;;;;;;7.68;3.55;;;;;;;27.90;51.01;100894.00;10497676;28;20028;-78
2021/07/27 13:00:44;;;;;;;5.93;2.85;;;;;;;29.00;49.20;100981.78;10497552;28;20468;-78
2021/07/27 13:05:45;;;;;;;4.90;3.38;;;;;;;29.08;47.57;101024.84;10480345;28;20032;-78
2021/07/27 13:10:49;;;;;;;12.13;3.45;;;;;;;27.96;49.26;100939.25;10464564;28;20028;-78
2021/07/27 13:15:49;;;;;;;3.97;3.58;;;;;;;28.05;50.34;101018.91;10497555;28;20067;-77
2021/07/27 13:20:50;;;;;;;7.70;4.00;;;;;;;28.03;48.93;101029.53;10497210;28;20071;-78
2021/07/27 13:25:50;;;;;;;5.20;3.83;;;;;;;27.08;52.88;101048.59;10497163;28;20467;-77
2021/07/27 13:30:51;;;;;;;5.80;4.63;;;;;;;27.10;51.93;101021.31;10478997;28;20036;-78
2021/07/27 13:35:51;;;;;;;7.47;4.10;;;;;;;27.07;51.87;101012.78;10498557;28;20059;-78
2021/07/27 13:40:51;;;;;;;4.05;3.75;;;;;;;27.33;51.41;101015.94;10503997;28;20037;-77
2021/07/27 13:45:52;;;;;;;5.53;4.40;;;;;;;26.28;51.59;100810.00;10504209;28;20123;-78
2021/07/27 13:50:52;;;;;;;5.68;4.65;;;;;;;26.40;50.91;100961.09;10487899;28;20063;-78
2021/07/27 13:55:53;;;;;;;5.57;4.05;;;;;;;25.92;53.67;100968.78;10485689;28;20044;-78
2021/07/27 14:00:53;;;;;;;4.50;4.10;;;;;;;26.60;51.58;101001.63;10502586;28;20360;-77
2021/07/27 14:05:53;;;;;;;10.85;5.10;;;;;;;27.04;50.55;100971.69;10500017;28;20126;-78
2021/07/27 14:10:54;;;;;;;11.90;6.97;;;;;;;27.50;49.30;100985.53;10500127;28;20182;-78
2021/07/27 14:15:54;;;;;;;8.20;5.68;;;;;;;27.76;49.51;100982.22;10481121;28;20059;-77
2021/07/27 14:20:55;;;;;;;6.40;5.43;;;;;;;28.16;49.35;100968.56;10497957;28;20039;-77
2021/07/27 14:25:55;;;;;;;7.45;5.38;;;;;;;28.74;50.29;100945.41;10481759;28;20068;-77
2021/07/27 14:30:56;;;;;;;6.68;6.15;;;;;;;28.04;47.00;100886.41;10503657;28;20447;-78
2021/07/27 14:35:56;;;;;;;14.00;9.13;;;;;;;29.02;50.89;100954.44;10480144;28;20463;-78
2021/07/27 14:40:56;;;;;;;9.80;7.78;;;;;;;28.80;47.16;100941.34;10495881;28;20071;-79
2021/07/27 14:45:57;;;;;;;9.85;8.68;;;;;;;28.43;50.81;100937.84;10478013;28;20389;-78
2021/07/27 14:50:58;;;;;;;10.68;9.68;;;;;;;27.24;50.54;100946.28;10495372;28;20041;-79
2021/07/27 14:55:59;;;;;;;12.85;9.95;;;;;;;26.63;50.47;100922.41;10480196;28;20079;-78
2021/07/27 15:01:00;;;;;;;13.20;10.43;;;;;;;25.80;52.32;100935.06;10481916;28;20036;-77
2021/07/27 15:06:01;;;;;;;19.27;10.93;;;;;;;24.88;52.97;100883.50;10498145;28;20340;-77
2021/07/27 15:11:01;;;;;;;14.57;10.32;;;;;;;24.47;52.66;100828.56;10478958;28;20044;-78
2021/07/27 15:16:02;;;;;;;13.38;9.85;;;;;;;25.05;53.55;100914.34;10479940;28;20033;-77
2021/07/27 15:21:02;;;;;;;18.40;11.82;;;;;;;24.83;54.32;100862.25;10497310;28;20044;-78
2021/07/27 15:26:04;;;;;;;11.50;9.20;;;;;;;25.43;52.29;100878.41;10498254;28;20052;-77
2021/07/27 15:31:05;;;;;;;12.68;10.18;;;;;;;25.95;52.19;100891.31;10479166;28;20028;-78
2021/07/27 15:36:12;;;;;;;14.82;9.70;;;;;;;26.15;53.63;100870.72;10496547;28;20032;-78
2021/07/27 15:41:13;;;;;;;11.25;9.20;;;;;;;26.63;54.40;100889.91;10462036;28;20086;-78
2021/07/27 15:46:14;;;;;;;11.00;8.85;;;;;;;26.17;51.73;100879.59;10496869;28;20060;-77
2021/07/27 15:51:14;;;;;;;14.70;10.68;;;;;;;25.74;52.89;100878.81;10496746;28;20063;-77
2021/07/27 15:56:15;;;;;;;12.27;8.82;;;;;;;25.06;52.55;100861.41;10495603;28;20449;-77
2021/07/27 16:01:16;;;;;;;7.38;6.45;;;;;;;24.52;55.63;100925.41;10442376;28;20110;-77
2021/07/27 16:06:16;;;;;;;4.13;3.65;;;;;;;23.79;52.31;100940.84;10494067;28;20130;-77
2021/07/27 16:11:18;;;;;;;9.30;4.22;;;;;;;22.60;55.03;100899.19;10494005;28;20080;-77
2021/07/27 16:16:22;;;;;;;5.88;3.45;;;;;;;22.55;56.28;100951.63;10457486;28;20058;-77
2021/07/27 16:21:22;;;;;;;6.30;4.57;;;;;;;22.21;56.92;100919.91;10458221;28;20041;-77
2021/07/27 16:26:23;;;;;;;6.78;5.63;;;;;;;21.87;58.47;100949.03;10493010;28;20060;-77
2021/07/27 16:31:23;;;;;;;17.27;5.93;;;;;;;20.92;59.69;100839.00;10473691;28;20033;-77
2021/07/27 16:36:24;;;;;;;9.25;5.38;;;;;;;20.97;60.78;100972.00;10492381;28;20104;-77
2021/07/27 16:41:24;;;;;;;7.95;5.07;;;;;;;20.72;61.72;100971.81;10472792;28;20048;-76
2021/07/27 16:46:25;;;;;;;9.35;5.30;;;;;;;20.55;62.59;100956.28;10491530;28;20109;-76
2021/07/27 16:51:25;;;;;;;9.15;4.45;;;;;;;20.15;63.44;100951.22;10457617;28;20031;-77
2021/07/27 16:56:26;;;;;;;9.10;5.13;;;;;;;20.32;63.34;100954.66;10489087;28;20477;-77
2021/07/27 17:01:26;;;;;;;8.07;5.85;;;;;;;20.18;63.66;100948.78;10469757;28;20064;-77
2021/07/27 17:06:27;;;;;;;10.10;6.00;;;;;;;20.16;63.72;100939.13;10488395;28;20028;-77
2021/07/27 17:11:28;;;;;;;13.18;5.53;;;;;;;20.11;63.72;100934.41;10472977;28;20039;-77
2021/07/27 17:16:28;;;;;;;8.20;6.65;;;;;;;20.25;64.10;100929.31;10495317;28;20052;-77
2021/07/27 17:21:28;;;;;;;6.57;4.50;;;;;;;20.15;64.72;100932.78;10494668;28;20045;-77
2021/07/27 17:26:29;;;;;;;8.27;5.10;;;;;;;19.84;64.75;100857.44;10477057;28;20439;-77
2021/07/27 17:31:29;;;;;;;8.65;5.35;;;;;;;20.11;65.47;100933.59;10494471;28;20052;-77
2021/07/27 17:36:30;;;;;;;3.88;3.47;;;;;;;20.34;64.78;100935.16;10458023;28;20040;-77
2021/07/27 17:41:30;;;;;;;7.75;3.40;;;;;;;19.81;64.25;100829.66;10492821;28;20048;-77
2021/07/27 17:46:30;;;;;;;2.88;2.58;;;;;;;20.36;64.43;100913.75;10477506;28;20080;-77
2021/07/27 17:51:31;;;;;;;3.28;2.67;;;;;;;20.52;64.33;100942.25;10496610;28;20036;-77
2021/07/27 17:56:31;;;;;;;8.93;3.83;;;;;;;20.28;65.16;100928.78;10479196;28;20102;-77
2021/07/27 18:01:32;;;;;;;3.22;2.92;;;;;;;20.17;65.75;100933.38;10476394;28;20577;-77
2021/07/27 18:06:32;;;;;;;5.20;4.32;;;;;;;20.13;66.16;100936.88;10493535;28;20035;-77
2021/07/27 18:11:32;;;;;;;6.45;3.08;;;;;;;20.34;65.22;100938.75;10493414;28;20033;-77
2021/07/27 18:16:33;;;;;;;13.60;4.25;;;;;;;20.34;65.69;100935.16;10493474;28;20116;-77
2021/07/27 18:21:36;;;;;;;4.15;3.85;;;;;;;20.08;66.42;100937.69;10492140;28;20495;-76
2021/07/27 18:26:36;;;;;;;8.30;5.03;;;;;;;20.05;66.81;100916.22;10473368;28;20053;-77
2021/07/27 18:31:37;;;;;;;3.70;3.38;;;;;;;20.15;66.40;100916.31;10473456;28;20110;-78
2021/07/27 18:36:37;;;;;;;6.72;3.60;;;;;;;20.28;65.51;100933.47;10474015;28;20087;-77
2021/07/27 18:41:38;;;;;;;5.15;3.92;;;;;;;20.24;65.69;100921.34;10491076;28;20086;-77
2021/07/27 18:46:39;;;;;;;4.85;3.60;;;;;;;19.93;65.91;100863.31;10491039;28;20222;-77
2021/07/27 18:51:39;;;;;;;5.28;3.70;;;;;;;20.38;66.04;100950.88;10490857;28;20431;-77
2021/07/27 18:56:40;;;;;;;6.75;4.53;;;;;;;20.38;66.48;100933.53;10491921;28;20109;-77
2021/07/27 19:01:40;;;;;;;6.63;4.57;;;;;;;20.08;66.24;100906.63;10490516;28;20040;-77
2021/07/27 19:06:40;;;;;;;9.82;3.88;;;;;;;20.25;66.42;100944.97;10492802;28;20059;-77
2021/07/27 19:11:41;;;;;;;6.30;5.40;;;;;;;20.18;66.91;100932.28;10474053;28;20423;-78
2021/07/27 19:16:41;;;;;;;10.73;5.85;;;;;;;19.95;67.78;100936.19;10488758;28;20119;-77
2021/07/27 19:21:42;;;;;;;12.95;5.75;;;;;;;20.07;66.91;100927.78;10454805;28;20039;-77
2021/07/27 19:26:42;;;;;;;5.78;5.25;;;;;;;19.71;66.79;100891.66;10490063;28;20243;-77
2021/07/27 19:31:43;;;;;;;7.97;6.60;;;;;;;19.97;66.70;100923.03;10471680;28;20039;-77
2021/07/27 19:36:43;;;;;;;10.75;4.97;;;;;;;19.88;67.03;100934.75;10490709;28;20135;-77
2021/07/27 19:41:51;;;;;;;8.73;6.45;;;;;;;19.36;66.81;100864.59;10455609;28;20524;-78
2021/07/27 19:47:10;;;;;;;7.55;6.78;;;;;;;19.82;67.00;100935.78;10476093;28;20097;-78
2021/07/27 19:52:15;;;;;;;8.35;6.05;;;;;;;19.75;66.78;100941.47;10472164;28;20123;-77
2021/07/27 19:57:15;;;;;;;7.60;6.72;;;;;;;19.62;67.09;100941.81;10471841;28;20410;-77
2021/07/27 20:02:16;;;;;;;7.75;6.00;;;;;;;19.34;66.73;100918.16;10489479;28;20063;-77
2021/07/27 20:07:16;;;;;;;10.82;6.88;;;;;;;19.46;67.25;100960.00;10488945;28;20090;-77
2021/07/27 20:12:17;;;;;;;15.40;7.68;;;;;;;19.40;67.04;100961.03;10488515;28;20383;-77
2021/07/27 20:17:17;;;;;;;10.40;7.20;;;;;;;19.36;67.00;100960.72;10492467;28;20417;-77
2021/07/27 20:22:17;;;;;;;10.00;7.88;;;;;;;19.23;66.71;100958.34;10474722;28;20498;-79
2021/07/27 20:27:18;;;;;;;8.75;7.28;;;;;;;19.25;66.37;100959.75;10496271;28;20057;-78
2021/07/27 20:32:18;;;;;;;11.43;7.72;;;;;;;19.10;67.06;100956.78;10493022;28;20074;-78
2021/07/27 20:37:19;;;;;;;11.63;9.07;;;;;;;19.09;67.42;100968.03;10474660;28;20035;-77
2021/07/27 20:42:20;;;;;;;11.07;9.60;;;;;;;19.10;67.06;100958.72;10473734;28;20036;-78
2021/07/27 20:47:20;;;;;;;14.00;10.45;;;;;;;19.02;68.19;100957.25;10458778;28;20130;-77
2021/07/27 20:52:21;;;;;;;12.68;9.95;;;;;;;19.20;67.79;100962.44;10497508;28;20054;-77
2021/07/27 20:57:21;;;;;;;14.07;11.55;;;;;;;18.55;67.57;100840.47;10498708;28;20040;-77
2021/07/27 21:02:22;;;;;;;14.70;10.93;;;;;;;19.27;67.47;100954.84;10500684;28;20440;-77
2021/07/27 21:07:22;;;;;;;19.70;15.40;;;;;;;19.20;67.94;100959.69;10496889;28;20040;-77
2021/07/27 21:12:22;;;;;;;18.75;13.45;;;;;;;19.26;67.28;100949.59;10498609;28;20451;-78
2021/07/27 21:17:23;;;;;;;15.25;13.52;;;;;;;19.17;67.72;100954.69;10498113;28;20120;-77
2021/07/27 21:22:23;;;;;;;19.20;15.95;;;;;;;18.98;67.38;100940.44;10478757;28;20048;-78
2021/07/27 21:27:24;;;;;;;17.30;15.18;;;;;;;19.12;67.42;100957.38;10496223;28;20064;-77
2021/07/27 21:32:24;;;;;;;26.90;16.55;;;;;;;18.51;69.01;100894.19;10494747;28;20040;-77
2021/07/27 21:37:25;;;;;;;21.88;17.13;;;;;;;19.03;68.42;100967.97;10495932;28;20119;-77
2021/07/27 21:42:25;;;;;;;22.60;17.65;;;;;;;19.02;68.57;100958.06;10493870;28;20040;-77
2021/07/27 21:47:33;;;;;;;28.95;17.75;;;;;;;18.88;68.59;100937.53;10493735;28;20115;-77
2021/07/27 21:52:33;;;;;;;29.02;17.60;;;;;;;18.94;68.41;100950.25;10478393;28;20330;-77
2021/07/27 21:57:34;;;;;;;32.47;20.25;;;;;;;18.67;68.69;100899.91;10494142;28;20036;-76
2021/07/27 22:02:34;;;;;;;26.73;19.95;;;;;;;18.96;69.10;100958.25;10478627;28;20037;-76
2021/07/27 22:07:34;;;;;;;33.13;20.60;;;;;;;18.95;68.33;100967.53;10477736;28;20032;-77
2021/07/27 22:12:35;;;;;;;30.85;21.70;;;;;;;18.65;69.43;100913.84;10494526;28;20040;-77
2021/07/27 22:17:35;;;;;;;34.08;21.90;;;;;;;18.69;69.90;100931.47;10498686;28;20487;-77
2021/07/27 22:22:36;;;;;;;26.35;18.10;;;;;;;18.75;70.10;100954.34;10501052;28;20119;-77
2021/07/27 22:27:37;;;;;;;32.58;16.95;;;;;;;18.82;69.35;100955.00;10492005;28;20190;-77
2021/07/27 22:32:37;;;;;;;19.63;15.77;;;;;;;18.75;69.66;100962.59;10477065;28;20134;-77
2021/07/27 22:37:40;;;;;;;24.25;16.67;;;;;;;18.71;69.75;100964.97;10493627;28;20033;-77
2021/07/27 22:42:40;;;;;;;19.35;15.90;;;;;;;18.48;69.86;100929.50;10497775;28;20033;-77
2021/07/27 22:47:41;;;;;;;17.65;15.10;;;;;;;18.60;69.93;100963.13;10495531;28;20041;-77
2021/07/27 22:52:41;;;;;;;26.02;13.52;;;;;;;18.59;70.02;100956.00;10493374;28;20058;-77
2021/07/27 22:57:46;;;;;;;17.45;14.55;;;;;;;18.57;69.67;100959.00;10472510;28;20037;-77
2021/07/27 23:02:46;;;;;;;23.17;15.77;;;;;;;18.18;69.70;100905.13;10490722;28;20093;-77
2021/07/27 23:07:47;;;;;;;20.88;13.98;;;;;;;18.36;69.66;100922.16;10487919;28;20458;-77
2021/07/27 23:12:48;;;;;;;16.23;13.43;;;;;;;18.49;69.24;100942.94;10491339;28;20114;-77